Time;durP1;ratioP1;P1;durP2;ratioP2;P2;SDS_P1;SDS_P2;PMS_P1;PMS_P2;Temp;Humidity;BMP_temperature;BMP_pressure;BME280_temperature;BME280_humidity;BME280_pressure;Samples;Min_cycle;Max_cycle;Signal;HPM_P1;HPM_P2
2023/03/01 00:01:07;;;;;;;4.53;3.10;;;;;;;7.25;91.91;95304.91;4943975;29;20442;-78
2023/03/01 00:03:33;;;;;;;4.28;3.08;;;;;;;7.17;91.62;95301.38;4927946;29;20525;-78
2023/03/01 00:05:59;;;;;;;3.90;2.85;;;;;;;7.23;91.27;95312.94;4943160;29;20506;-77
2023/03/01 00:08:25;;;;;;;3.53;3.03;;;;;;;7.20;91.08;95301.00;4939791;28;20421;-78
2023/03/01 00:11:04;;;;;;;5.23;3.77;;;;;;;7.16;91.16;95297.13;4948174;28;20317;-78
2023/03/01 00:13:31;;;;;;;21.13;14.10;;;;;;;7.13;90.86;95300.09;4954564;29;20459;-78
2023/03/01 00:15:57;;;;;;;26.38;17.50;;;;;;;7.17;91.21;95296.13;4947007;28;20427;-78
2023/03/01 00:18:23;;;;;;;26.13;18.00;;;;;;;7.14;90.74;95275.53;4938730;28;20437;-78
2023/03/01 00:20:56;;;;;;;23.27;17.23;;;;;;;7.08;90.59;95267.59;4935449;29;20502;-78
2023/03/01 00:23:22;;;;;;;18.40;14.30;;;;;;;7.03;91.24;95265.50;4951552;29;20518;-78
2023/03/01 00:25:48;;;;;;;22.92;14.20;;;;;;;7.06;90.88;95253.88;4936473;28;20523;-78
2023/03/01 00:28:14;;;;;;;15.98;12.98;;;;;;;7.28;90.79;95268.69;4950266;29;20431;-78
2023/03/01 00:30:39;;;;;;;14.13;11.73;;;;;;;7.27;90.17;95266.22;4946812;28;20439;-79
2023/03/01 00:33:05;;;;;;;8.75;7.68;;;;;;;7.16;90.76;95263.09;4954137;28;20530;-78
2023/03/01 00:35:32;;;;;;;9.33;7.10;;;;;;;7.20;90.40;95253.88;4947103;28;20429;-80
2023/03/01 00:37:57;;;;;;;9.38;7.07;;;;;;;7.15;90.19;95250.19;4943868;28;20926;-80
2023/03/01 00:40:24;;;;;;;7.67;6.20;;;;;;;7.15;90.45;95263.28;4943378;29;20423;-80
2023/03/01 00:42:50;;;;;;;8.98;5.57;;;;;;;7.00;90.41;95229.25;4943448;29;20921;-80
2023/03/01 00:45:15;;;;;;;7.47;5.10;;;;;;;7.03;90.81;95257.66;4947501;29;20423;-78
2023/03/01 00:47:41;;;;;;;9.02;5.43;;;;;;;6.88;91.31;95254.22;4946534;28;20442;-78
2023/03/01 00:50:07;;;;;;;5.97;3.90;;;;;;;6.91;91.48;95260.91;4938186;29;20514;-78
2023/03/01 00:52:32;;;;;;;6.65;3.50;;;;;;;7.07;91.12;95255.50;4946183;28;20966;-77
2023/03/01 00:54:58;;;;;;;5.20;3.37;;;;;;;7.08;90.53;95238.81;4936843;28;20783;-77
2023/03/01 00:57:23;;;;;;;4.87;3.30;;;;;;;6.65;89.82;95195.91;4942658;29;20496;-78
2023/03/01 00:59:49;;;;;;;6.45;3.65;;;;;;;6.83;90.90;95240.84;4934764;29;20417;-78
2023/03/01 01:02:14;;;;;;;4.50;3.10;;;;;;;6.78;91.68;95254.47;4953892;29;20422;-77
2023/03/01 01:04:40;;;;;;;3.73;2.87;;;;;;;6.74;91.02;95247.16;4953676;28;20422;-78
2023/03/01 01:07:06;;;;;;;4.20;2.65;;;;;;;6.74;92.14;95258.44;4953452;28;20910;-78
2023/03/01 01:09:31;;;;;;;2.63;2.28;;;;;;;6.76;91.14;95258.22;4953638;28;20422;-77
2023/03/01 01:11:57;;;;;;;2.43;2.23;;;;;;;6.90;91.00;95261.88;4939583;28;20515;-78
2023/03/01 01:14:22;;;;;;;2.43;2.20;;;;;;;7.00;90.53;95252.78;4945165;29;20817;-77
2023/03/01 01:16:48;;;;;;;2.23;2.00;;;;;;;6.98;90.09;95254.78;4953353;29;20498;-78
2023/03/01 01:19:13;;;;;;;2.35;2.15;;;;;;;6.97;90.18;95241.84;4937929;28;20955;-80
2023/03/01 01:21:42;;;;;;;3.10;2.15;;;;;;;6.86;89.77;95243.09;4950267;28;20815;-78
2023/03/01 01:24:08;;;;;;;2.80;2.25;;;;;;;6.94;89.98;95250.88;4941021;29;20493;-78
2023/03/01 01:26:34;;;;;;;2.13;1.93;;;;;;;6.97;89.41;95252.31;4945260;28;20510;-78
2023/03/01 01:29:01;;;;;;;2.20;2.00;;;;;;;6.92;89.84;95254.69;4940580;28;20488;-78
2023/03/01 01:31:28;;;;;;;2.10;1.90;;;;;;;6.97;89.66;95258.38;4950643;29;20497;-78
2023/03/01 01:33:54;;;;;;;2.10;1.77;;;;;;;6.86;89.98;95243.09;4937886;29;20940;-78
2023/03/01 01:36:20;;;;;;;2.00;1.73;;;;;;;6.82;89.32;95249.69;4937813;28;20437;-78
2023/03/01 01:38:46;;;;;;;2.08;1.88;;;;;;;6.83;89.74;95264.41;4951699;29;20432;-78
2023/03/01 01:41:12;;;;;;;1.63;1.53;;;;;;;6.88;89.36;95259.44;4945962;28;20430;-78
2023/03/01 01:43:44;;;;;;;1.85;1.75;;;;;;;6.93;88.76;95264.13;4944182;28;20427;-78
2023/03/01 01:46:32;;;;;;;3.20;1.95;;;;;;;6.88;89.07;95267.28;4933805;29;20428;-78
2023/03/01 01:49:06;;;;;;;1.98;1.80;;;;;;;6.94;88.62;95271.81;4949646;28;20439;-78
2023/03/01 01:51:40;;;;;;;1.75;1.65;;;;;;;6.96;88.46;95261.97;4942390;29;20472;-78
2023/03/01 01:54:26;;;;;;;2.13;1.55;;;;;;;6.92;88.52;95250.22;4919129;29;20650;-78
2023/03/01 01:57:02;;;;;;;1.92;1.83;;;;;;;6.84;88.68;95250.31;4941723;29;21222;-78
2023/03/01 01:59:31;;;;;;;4.05;1.90;;;;;;;6.64;88.32;95216.00;4939555;29;20800;-78
2023/03/01 02:02:00;;;;;;;1.40;1.30;;;;;;;6.95;88.12;95256.91;4942381;28;20418;-78
2023/03/01 02:04:25;;;;;;;1.70;1.60;;;;;;;7.01;88.11;95249.16;4953503;28;20419;-78
2023/03/01 02:07:01;;;;;;;1.60;1.50;;;;;;;6.99;87.54;95239.88;4945843;28;20421;-78
2023/03/01 02:09:27;;;;;;;2.08;1.30;;;;;;;7.07;87.02;95229.31;4926620;29;20497;-78
2023/03/01 02:11:54;;;;;;;1.30;1.20;;;;;;;7.03;86.33;95209.72;4934006;29;20424;-78
2023/03/01 02:14:19;;;;;;;2.15;1.48;;;;;;;7.16;85.82;95221.22;4944199;29;20427;-79
2023/03/01 02:16:45;;;;;;;1.10;1.10;;;;;;;7.16;85.19;95225.63;4953152;28;20778;-79
2023/03/01 02:19:26;;;;;;;1.50;1.40;;;;;;;7.13;85.07;95223.38;4945080;28;20495;-80
2023/03/01 02:22:12;;;;;;;1.10;1.10;;;;;;;7.07;85.54;95232.75;4939132;28;20953;-79
2023/03/01 02:24:40;;;;;;;1.38;1.27;;;;;;;7.13;85.46;95225.97;4934663;29;20409;-79
2023/03/01 02:27:05;;;;;;;1.23;1.13;;;;;;;6.99;84.59;95198.00;4940451;29;20483;-78
2023/03/01 02:29:31;;;;;;;1.30;1.20;;;;;;;7.04;85.50;95230.50;4943124;28;20540;-79
2023/03/01 02:32:00;;;;;;;1.42;1.33;;;;;;;7.07;85.21;95224.91;4946446;29;20447;-78
2023/03/01 02:34:26;;;;;;;2.13;1.20;;;;;;;7.18;84.97;95240.16;4936395;28;20417;-78
2023/03/01 02:37:04;;;;;;;1.40;1.30;;;;;;;7.16;84.98;95244.78;4937848;29;20419;-78
2023/03/01 02:39:47;;;;;;;1.60;1.50;;;;;;;7.11;84.85;95244.47;4937343;28;20507;-78
2023/03/01 02:42:16;;;;;;;1.80;1.40;;;;;;;7.05;85.41;95234.75;4952726;28;20514;-78
2023/03/01 02:44:42;;;;;;;1.50;1.40;;;;;;;6.99;85.68;95255.59;4942756;28;20439;-80
2023/03/01 02:47:07;;;;;;;1.60;1.50;;;;;;;6.85;86.44;95244.09;4946798;29;20423;-78
2023/03/01 02:49:36;;;;;;;1.80;1.70;;;;;;;6.85;87.25;95244.09;4944824;28;20426;-79
2023/03/01 02:52:38;;;;;;;1.85;1.75;;;;;;;6.79;87.12;95245.63;4944900;28;20510;-78
2023/03/01 02:55:04;;;;;;;2.70;2.00;;;;;;;6.74;87.84;95241.91;4945743;29;20436;-80
2023/03/01 02:57:31;;;;;;;2.58;1.88;;;;;;;6.76;87.43;95237.31;4940337;29;20943;-81
2023/03/01 03:00:07;;;;;;;1.80;1.70;;;;;;;6.56;88.41;95203.00;4944649;28;20458;-81
2023/03/01 03:02:37;;;;;;;2.00;1.90;;;;;;;6.58;88.11;95192.34;4944450;28;20789;-80
2023/03/01 03:05:23;;;;;;;1.73;1.63;;;;;;;6.86;88.00;95235.25;4945401;28;20659;-80
2023/03/01 03:07:50;;;;;;;2.10;1.90;;;;;;;6.40;88.06;95164.72;4945239;28;20424;-80
2023/03/01 03:10:22;;;;;;;2.00;1.80;;;;;;;6.92;87.85;95237.16;4945161;29;20928;-79
2023/03/01 03:12:56;;;;;;;2.08;1.92;;;;;;;6.93;87.58;95241.38;4937195;28;20482;-79
2023/03/01 03:15:23;;;;;;;2.43;2.10;;;;;;;6.88;87.85;95240.31;4935112;28;20413;-79
2023/03/01 03:17:50;;;;;;;3.13;1.83;;;;;;;6.76;88.21;95240.72;4937043;29;20600;-79
2023/03/01 03:20:20;;;;;;;2.30;1.93;;;;;;;6.71;88.38;95252.72;4953344;29;20493;-81
2023/03/01 03:22:47;;;;;;;4.03;2.30;;;;;;;6.64;89.51;95247.41;4945123;29;20451;-80
2023/03/01 03:25:13;;;;;;;2.40;2.20;;;;;;;6.68;89.31;95251.28;4946155;29;20432;-80
2023/03/01 03:27:40;;;;;;;2.50;2.20;;;;;;;6.74;89.12;95236.69;4953110;28;20179;-81
2023/03/01 03:30:12;;;;;;;4.07;2.00;;;;;;;6.76;88.76;95259.03;4945731;29;20584;-81
2023/03/01 03:32:38;;;;;;;2.20;2.00;;;;;;;6.63;89.11;95239.72;4938293;29;20226;-80
2023/03/01 03:35:09;;;;;;;2.45;2.25;;;;;;;6.72;89.24;95259.59;4936812;29;20503;-79
2023/03/01 03:40:20;;;;;;;2.67;2.47;;;;;;;6.55;89.39;95252.88;4953039;29;20434;-79
2023/03/01 03:42:46;;;;;;;2.63;2.33;;;;;;;6.56;89.90;95259.72;4948587;29;20431;-79
2023/03/01 03:45:11;;;;;;;2.85;2.53;;;;;;;6.55;89.80;95269.38;4949526;28;20970;-79
2023/03/01 03:47:37;;;;;;;3.15;2.33;;;;;;;6.45;89.89;95258.34;4944717;29;20475;-81
2023/03/01 03:50:02;;;;;;;3.13;2.40;;;;;;;6.42;90.11;95267.34;4949465;29;20443;-80
2023/03/01 03:52:28;;;;;;;2.88;2.33;;;;;;;6.51;90.31;95262.84;4939766;28;20424;-80
2023/03/01 03:54:53;;;;;;;2.85;2.20;;;;;;;6.67;89.21;95270.56;4954794;28;20498;-78
2023/03/01 03:57:18;;;;;;;2.30;2.10;;;;;;;6.70;88.99;95267.59;4941528;28;20479;-78
2023/03/01 03:59:44;;;;;;;2.90;2.40;;;;;;;6.52;89.65;95261.88;4949283;29;20930;-78
2023/03/01 04:02:09;;;;;;;2.37;2.17;;;;;;;6.63;89.20;95258.84;4947902;28;20560;-78
2023/03/01 04:04:34;;;;;;;2.65;2.42;;;;;;;6.69;89.18;95259.94;4942943;28;20429;-78
2023/03/01 04:07:00;;;;;;;2.40;2.08;;;;;;;6.70;89.02;95266.78;4953108;29;20451;-77
2023/03/01 04:09:25;;;;;;;3.58;2.47;;;;;;;6.40;88.94;95227.47;4948757;28;20924;-78
2023/03/01 04:11:51;;;;;;;3.53;2.88;;;;;;;6.67;88.58;95265.34;4941628;29;20468;-78
2023/03/01 04:14:16;;;;;;;3.03;2.63;;;;;;;6.75;88.66;95260.03;4940434;29;20420;-78
2023/03/01 04:16:42;;;;;;;2.70;2.50;;;;;;;6.79;88.12;95263.13;4944630;28;21053;-78
2023/03/01 04:19:09;;;;;;;2.75;2.55;;;;;;;6.74;88.06;95270.69;4945351;29;20509;-78
2023/03/01 04:21:35;;;;;;;2.92;2.63;;;;;;;6.28;88.26;95215.00;4938486;28;20593;-80
2023/03/01 04:24:03;;;;;;;2.60;2.40;;;;;;;6.64;88.74;95263.09;4937726;29;20480;-81
2023/03/01 04:26:29;;;;;;;3.03;2.50;;;;;;;6.60;88.55;95261.00;4943210;29;20922;-83
2023/03/01 04:28:54;;;;;;;2.47;2.00;;;;;;;6.73;88.28;95269.88;4951894;28;20497;-82
2023/03/01 04:31:21;;;;;;;2.60;2.40;;;;;;;6.41;88.87;95213.41;4938470;28;20440;-81
2023/03/01 04:33:51;;;;;;;3.53;2.42;;;;;;;6.66;88.75;95268.16;4942962;29;20853;-78
2023/03/01 04:36:18;;;;;;;2.50;2.30;;;;;;;6.54;88.94;95267.75;4950254;28;20426;-78
2023/03/01 04:38:47;;;;;;;2.55;2.20;;;;;;;6.55;89.15;95258.09;4942307;28;20436;-80
2023/03/01 04:41:13;;;;;;;2.70;2.50;;;;;;;6.34;89.45;95220.34;4933282;29;20554;-79
2023/03/01 04:43:39;;;;;;;5.78;2.60;;;;;;;6.54;88.86;95238.97;4933070;29;20440;-80
2023/03/01 04:46:09;;;;;;;3.10;2.20;;;;;;;6.58;88.98;95249.88;4942464;29;20512;-77
2023/03/01 04:48:36;;;;;;;2.78;2.05;;;;;;;6.56;89.26;95252.69;4934071;29;20500;-80
2023/03/01 04:51:02;;;;;;;2.40;2.10;;;;;;;6.62;89.55;95254.59;4948547;29;20559;-80
2023/03/01 04:53:28;;;;;;;3.20;2.15;;;;;;;6.47;89.38;95235.44;4940679;28;20961;-78
2023/03/01 04:55:55;;;;;;;2.50;2.30;;;;;;;6.57;89.37;95256.94;4947354;29;20473;-78
2023/03/01 04:58:25;;;;;;;2.95;2.20;;;;;;;6.47;89.38;95242.47;4942369;29;20417;-79
2023/03/01 05:00:51;;;;;;;3.53;2.22;;;;;;;6.57;89.73;95256.94;4940998;28;20455;-78
2023/03/01 05:03:17;;;;;;;3.60;2.35;;;;;;;6.61;89.38;95241.69;4945524;28;20417;-78
2023/03/01 05:05:44;;;;;;;2.30;2.10;;;;;;;6.59;89.38;95248.91;4942874;28;20952;-81
2023/03/01 05:08:17;;;;;;;2.65;2.38;;;;;;;6.60;89.33;95250.53;4944336;29;20924;-80
2023/03/01 05:10:46;;;;;;;7.38;2.45;;;;;;;6.33;89.69;95252.69;4943797;28;20437;-84
2023/03/01 05:13:13;;;;;;;3.25;2.28;;;;;;;6.26;91.03;95246.53;4946465;29;20924;-83
2023/03/01 05:15:39;;;;;;;3.10;2.80;;;;;;;6.39;90.82;95259.03;4952592;28;20464;-83
2023/03/01 05:18:07;;;;;;;2.55;2.35;;;;;;;6.36;90.50;95256.78;4951660;28;20463;-80
2023/03/01 05:20:36;;;;;;;3.47;1.97;;;;;;;6.02;90.63;95207.53;4954657;29;20651;-85
2023/03/01 05:23:04;;;;;;;4.23;2.73;;;;;;;6.44;90.29;95264.56;4952260;28;20412;-81
2023/03/01 05:25:33;;;;;;;3.45;2.70;;;;;;;6.38;90.07;95250.38;4940912;28;20427;-80
2023/03/01 05:28:04;;;;;;;3.00;2.70;;;;;;;6.48;90.36;95272.88;4947844;29;20427;-80
2023/03/01 05:30:30;;;;;;;8.85;2.70;;;;;;;6.39;90.53;95257.25;4938656;28;20458;-81
2023/03/01 05:32:56;;;;;;;2.93;2.63;;;;;;;6.53;90.21;95257.47;4945376;28;20442;-79
2023/03/01 05:35:22;;;;;;;2.73;2.40;;;;;;;6.61;89.61;95258.19;4938462;28;20498;-80
2023/03/01 05:37:48;;;;;;;3.03;2.53;;;;;;;6.67;89.32;95260.09;4952598;28;20527;-82
2023/03/01 05:40:20;;;;;;;4.40;2.72;;;;;;;6.65;88.62;95256.88;4939658;28;20426;-82
2023/03/01 05:42:50;;;;;;;3.20;2.50;;;;;;;6.45;88.93;95226.97;4944584;29;20511;-82
2023/03/01 05:45:17;;;;;;;4.20;2.80;;;;;;;6.51;89.49;95262.03;4939935;28;20460;-80
2023/03/01 05:47:44;;;;;;;5.10;3.28;;;;;;;6.31;89.50;95228.53;4942996;29;20511;-78
2023/03/01 05:50:19;;;;;;;5.20;3.60;;;;;;;6.34;89.11;95230.78;4941452;28;21830;-79
2023/03/01 05:52:48;;;;;;;3.85;3.10;;;;;;;6.49;89.60;95243.91;4938344;29;20422;-78
2023/03/01 05:55:13;;;;;;;6.00;3.80;;;;;;;6.43;89.92;95266.34;4949390;28;20423;-80
2023/03/01 05:57:39;;;;;;;5.72;3.30;;;;;;;6.42;89.72;95263.91;4933893;29;20413;-81
2023/03/01 06:00:06;;;;;;;4.50;3.40;;;;;;;6.51;89.80;95286.41;4931291;29;20946;-80
2023/03/01 06:02:31;;;;;;;3.70;2.97;;;;;;;6.58;89.63;95299.56;4953164;28;20473;-81
2023/03/01 06:04:57;;;;;;;3.97;3.00;;;;;;;6.52;89.89;95284.59;4943928;28;20459;-81
2023/03/01 06:07:22;;;;;;;4.07;3.15;;;;;;;6.49;89.76;95293.59;4940689;28;20432;-82
2023/03/01 06:09:48;;;;;;;3.97;2.80;;;;;;;6.31;89.64;95264.34;4939285;29;20233;-81
2023/03/01 06:12:13;;;;;;;3.70;2.97;;;;;;;6.50;89.97;95292.59;4933487;29;20416;-80
2023/03/01 06:14:38;;;;;;;4.23;2.63;;;;;;;6.44;90.34;95296.75;4938047;29;20422;-81
2023/03/01 06:17:04;;;;;;;3.92;2.78;;;;;;;6.52;89.66;95305.50;4945299;28;20777;-80
2023/03/01 06:19:29;;;;;;;3.83;2.93;;;;;;;6.62;89.21;95308.72;4938816;28;20420;-80
2023/03/01 06:21:55;;;;;;;2.70;2.43;;;;;;;6.48;89.22;95285.94;4929529;29;20413;-79
2023/03/01 06:24:20;;;;;;;3.70;2.90;;;;;;;6.72;88.61;95304.06;4936352;29;20443;-80
2023/03/01 06:26:45;;;;;;;3.08;2.78;;;;;;;6.49;88.78;95272.69;4933772;29;20432;-80
2023/03/01 06:29:11;;;;;;;3.50;2.90;;;;;;;6.63;88.89;95295.47;4932642;29;20956;-80
2023/03/01 06:31:36;;;;;;;3.73;2.43;;;;;;;6.49;88.45;95279.72;4927755;29;20211;-80
2023/03/01 06:34:02;;;;;;;4.00;2.63;;;;;;;6.49;88.65;95305.88;4926964;29;20897;-81
2023/03/01 06:36:28;;;;;;;2.93;2.57;;;;;;;6.46;89.71;95308.84;4933814;29;20190;-78
2023/03/01 06:38:53;;;;;;;3.83;2.50;;;;;;;6.33;89.66;95301.56;4948043;28;20183;-80
2023/03/01 06:41:19;;;;;;;3.47;2.57;;;;;;;6.28;90.49;95304.69;4934735;29;20269;-78
2023/03/01 06:43:44;;;;;;;1.93;1.80;;;;;;;6.18;90.51;95292.84;4944996;29;20183;-80
2023/03/01 06:46:10;;;;;;;5.50;2.47;;;;;;;6.18;90.88;95300.66;4948068;28;20183;-80
2023/03/01 06:48:35;;;;;;;4.20;2.10;;;;;;;6.29;90.16;95306.34;4942757;29;20574;-80
2023/03/01 06:51:01;;;;;;;4.07;1.70;;;;;;;6.23;90.58;95296.53;4948103;28;20709;-79
2023/03/01 06:53:27;;;;;;;2.13;1.93;;;;;;;6.30;90.21;95315.00;4957623;28;20185;-79
2023/03/01 06:55:57;;;;;;;3.30;2.10;;;;;;;6.16;90.30;95277.31;4949371;29;20664;-80
2023/03/01 06:58:23;;;;;;;2.80;2.50;;;;;;;6.33;90.04;95309.41;4944331;28;20246;-80
2023/03/01 07:00:48;;;;;;;5.70;2.90;;;;;;;6.27;90.19;95303.06;4946205;29;20167;-79
2023/03/01 07:03:14;;;;;;;4.73;2.40;;;;;;;6.30;90.25;95292.28;4946413;29;20274;-79
2023/03/01 07:05:39;;;;;;;3.33;1.90;;;;;;;6.44;89.81;95309.00;4947696;29;20237;-80
2023/03/01 07:08:05;;;;;;;3.60;2.30;;;;;;;6.30;89.38;95296.69;4949223;28;20233;-79
2023/03/01 07:10:30;;;;;;;6.17;2.17;;;;;;;6.25;89.86;95291.97;4949484;28;20221;-80
2023/03/01 07:12:57;;;;;;;3.37;2.10;;;;;;;6.39;89.98;95304.31;4936491;28;20177;-80
2023/03/01 07:15:22;;;;;;;2.53;1.90;;;;;;;6.30;89.46;95276.59;4938023;29;20179;-79
2023/03/01 07:17:50;;;;;;;4.90;2.33;;;;;;;6.53;88.87;95304.53;4944474;29;20606;-79
2023/03/01 07:20:16;;;;;;;2.10;1.90;;;;;;;6.44;89.04;95281.06;4947364;28;20167;-79
2023/03/01 07:22:42;;;;;;;2.37;2.10;;;;;;;6.46;88.19;95274.84;4951008;29;20187;-79
2023/03/01 07:25:08;;;;;;;1.80;1.70;;;;;;;6.70;87.61;95300.81;4957597;28;20241;-79
2023/03/01 07:27:34;;;;;;;2.77;2.20;;;;;;;6.60;88.18;95290.56;4949224;28;20189;-80
2023/03/01 07:29:59;;;;;;;4.60;2.10;;;;;;;6.69;88.59;95292.13;4946701;28;20610;-79
2023/03/01 07:32:24;;;;;;;3.97;1.73;;;;;;;6.70;87.50;95303.41;4939575;29;20716;-79
2023/03/01 07:34:51;;;;;;;1.70;1.60;;;;;;;6.65;87.52;95295.28;4937252;29;20163;-80
2023/03/01 07:37:16;;;;;;;5.03;1.97;;;;;;;6.76;87.47;95297.47;4929062;29;20176;-79
2023/03/01 07:39:42;;;;;;;2.30;2.10;;;;;;;6.84;86.97;95297.41;4926343;29;20177;-79
2023/03/01 07:42:08;;;;;;;2.20;2.00;;;;;;;6.89;87.14;95305.56;4942601;29;20207;-79
2023/03/01 07:44:34;;;;;;;3.07;2.27;;;;;;;6.97;86.18;95297.63;4939375;29;20554;-79
2023/03/01 07:47:00;;;;;;;3.33;2.00;;;;;;;6.98;86.47;95296.63;4942124;28;20178;-79
2023/03/01 07:49:26;;;;;;;3.07;2.30;;;;;;;7.05;86.10;95281.84;4944932;29;20640;-79
2023/03/01 07:51:52;;;;;;;4.87;2.20;;;;;;;7.12;85.49;95295.03;4934601;29;20830;-79
2023/03/01 07:54:18;;;;;;;6.67;2.40;;;;;;;7.15;85.63;95292.88;4928666;29;20186;-79
2023/03/01 07:56:43;;;;;;;2.53;2.00;;;;;;;7.12;85.07;95285.38;4940487;29;20183;-79
2023/03/01 07:59:09;;;;;;;6.17;2.50;;;;;;;6.88;85.95;95275.13;4939046;29;20655;-79
2023/03/01 08:01:35;;;;;;;5.70;2.40;;;;;;;6.90;86.07;95282.81;4931872;29;20210;-79
2023/03/01 08:04:01;;;;;;;3.53;2.30;;;;;;;6.92;86.44;95279.00;4948355;29;20727;-80
2023/03/01 08:06:27;;;;;;;5.60;2.60;;;;;;;6.99;86.22;95293.03;4939448;29;20171;-79
2023/03/01 08:08:55;;;;;;;3.67;2.23;;;;;;;6.86;86.14;95286.75;4946935;28;20233;-80
2023/03/01 08:11:20;;;;;;;3.40;2.27;;;;;;;6.78;86.45;95278.00;4936446;29;20254;-79
2023/03/01 08:13:48;;;;;;;3.73;2.30;;;;;;;6.83;86.09;95280.09;4933648;29;20665;-79
2023/03/01 08:16:15;;;;;;;2.13;1.93;;;;;;;6.83;86.69;95272.25;4930450;29;20557;-79
2023/03/01 08:18:41;;;;;;;5.40;2.30;;;;;;;6.88;85.72;95285.59;4930995;29;20269;-79
2023/03/01 08:21:09;;;;;;;25.97;3.87;;;;;;;7.00;86.14;95273.72;4936975;29;20179;-81
2023/03/01 08:23:35;;;;;;;4.53;2.30;;;;;;;7.06;85.73;95277.44;4944866;29;20565;-79
2023/03/01 08:26:11;;;;;;;2.33;2.13;;;;;;;7.05;85.02;95254.84;4953038;29;20193;-80
2023/03/01 08:28:37;;;;;;;3.17;1.50;;;;;;;7.29;85.04;95285.19;4948277;28;20182;-81
2023/03/01 08:31:12;;;;;;;4.07;2.97;;;;;;;7.25;84.43;95269.06;4947619;28;20257;-81
2023/03/01 08:33:37;;;;;;;4.40;2.37;;;;;;;7.35;84.68;95271.41;4931477;29;20226;-79
2023/03/01 08:36:06;;;;;;;4.83;2.00;;;;;;;7.36;83.94;95262.53;4931891;29;20669;-80
2023/03/01 08:38:33;;;;;;;4.43;2.63;;;;;;;7.51;83.71;95286.94;4926685;29;20578;-80
2023/03/01 08:41:07;;;;;;;3.30;2.77;;;;;;;7.50;83.90;95272.22;4928143;29;20179;-80
2023/03/01 08:43:32;;;;;;;4.93;2.80;;;;;;;7.55;83.08;95262.81;4939565;29;20171;-79
2023/03/01 08:45:57;;;;;;;3.10;2.70;;;;;;;7.68;83.08;95282.31;4947241;28;20186;-79
2023/03/01 08:48:23;;;;;;;6.90;3.37;;;;;;;7.61;83.00;95271.72;4952089;29;20178;-79
2023/03/01 08:50:48;;;;;;;3.53;3.00;;;;;;;7.73;83.05;95275.53;4944866;28;20203;-79
2023/03/01 08:53:14;;;;;;;6.03;3.30;;;;;;;7.94;81.97;95272.16;4942321;29;20174;-79
2023/03/01 08:55:39;;;;;;;3.07;2.77;;;;;;;7.97;80.75;95288.31;4941556;28;20537;-79
2023/03/01 08:58:05;;;;;;;3.40;3.10;;;;;;;8.02;80.97;95279.91;4940522;29;20191;-79
2023/03/01 09:00:30;;;;;;;5.23;3.17;;;;;;;8.00;80.46;95276.66;4947463;28;20265;-79
2023/03/01 09:02:56;;;;;;;4.00;2.60;;;;;;;7.96;80.29;95284.06;4946898;28;20176;-79
2023/03/01 09:05:21;;;;;;;4.13;3.00;;;;;;;8.07;80.27;95281.97;4946860;28;20189;-80
2023/03/01 09:07:47;;;;;;;2.93;2.53;;;;;;;7.94;79.76;95280.03;4954999;28;20209;-81
2023/03/01 09:10:12;;;;;;;3.83;2.27;;;;;;;8.06;79.17;95278.53;4944329;29;20189;-80
2023/03/01 09:12:37;;;;;;;3.17;2.27;;;;;;;8.22;78.63;95280.94;4945765;28;20261;-79
2023/03/01 09:15:03;;;;;;;2.80;2.17;;;;;;;8.28;78.04;95274.97;4949725;29;20241;-80
2023/03/01 09:17:29;;;;;;;3.00;2.07;;;;;;;8.30;77.24;95269.53;4947059;28;20178;-80
2023/03/01 09:19:54;;;;;;;3.17;2.30;;;;;;;8.15;77.62;95259.06;4946967;28;20198;-78
2023/03/01 09:22:20;;;;;;;3.23;2.13;;;;;;;8.32;77.78;95268.38;4946164;28;20171;-81
2023/03/01 09:24:45;;;;;;;2.20;1.90;;;;;;;8.46;77.38;95281.63;4954981;28;20241;-82
2023/03/01 09:27:12;;;;;;;2.87;2.27;;;;;;;8.42;77.14;95275.94;4954945;28;20226;-81
2023/03/01 09:29:38;;;;;;;5.93;2.20;;;;;;;8.41;77.13;95269.06;4955154;28;20190;-82
2023/03/01 09:32:03;;;;;;;2.20;2.00;;;;;;;8.38;77.02;95271.25;4954864;28;20229;-81
2023/03/01 09:34:29;;;;;;;3.40;1.97;;;;;;;8.35;77.13;95297.84;4954658;28;20317;-81
2023/03/01 09:36:54;;;;;;;2.90;2.10;;;;;;;8.30;77.70;95278.19;4949051;28;20183;-77
2023/03/01 09:39:20;;;;;;;2.73;2.33;;;;;;;8.20;77.72;95271.66;4951696;29;20306;-79
2023/03/01 09:42:04;;;;;;;2.17;1.70;;;;;;;7.97;78.13;95214.94;4951512;28;20552;-79
2023/03/01 09:44:33;;;;;;;2.53;1.90;;;;;;;8.46;77.52;95268.50;4943561;28;20186;-78
2023/03/01 09:47:00;;;;;;;1.70;1.60;;;;;;;8.45;77.40;95264.25;4948044;29;20174;-77
2023/03/01 09:49:30;;;;;;;2.17;1.87;;;;;;;8.47;77.44;95268.31;4946380;28;20174;-80
2023/03/01 09:52:14;;;;;;;5.37;2.00;;;;;;;8.58;78.22;95265.19;4938662;29;20583;-79
2023/03/01 09:54:39;;;;;;;2.43;1.80;;;;;;;8.55;76.64;95265.56;4945556;29;20186;-78
2023/03/01 09:57:24;;;;;;;2.00;1.70;;;;;;;8.37;77.54;95257.31;4943254;29;20185;-79
2023/03/01 10:00:08;;;;;;;3.50;1.77;;;;;;;8.22;78.04;95254.72;4944814;29;20229;-78
2023/03/01 10:02:59;;;;;;;1.77;1.67;;;;;;;8.23;78.37;95245.03;4947526;29;20182;-78
2023/03/01 10:05:31;;;;;;;2.43;1.70;;;;;;;8.21;79.39;95237.38;4929372;29;20175;-78
2023/03/01 10:08:07;;;;;;;4.17;2.57;;;;;;;8.34;77.92;95257.69;4939116;29;20179;-78
2023/03/01 10:10:36;;;;;;;1.70;1.60;;;;;;;8.24;78.13;95236.16;4948951;29;20261;-78
2023/03/01 10:13:25;;;;;;;1.70;1.43;;;;;;;8.28;77.91;95251.38;4936740;28;20179;-78
2023/03/01 10:16:01;;;;;;;5.47;1.70;;;;;;;8.32;78.54;95233.44;4938174;29;20178;-78
2023/03/01 10:18:32;;;;;;;1.90;1.60;;;;;;;8.39;78.27;95236.94;4947337;29;20676;-79
2023/03/01 10:21:18;;;;;;;2.40;1.80;;;;;;;8.32;78.14;95239.50;4944849;29;20171;-79
2023/03/01 10:23:43;;;;;;;2.37;1.83;;;;;;;8.25;78.60;95240.41;4933705;28;20585;-78
2023/03/01 10:26:34;;;;;;;4.07;1.90;;;;;;;8.32;79.07;95229.03;4945234;28;20182;-78
2023/03/01 10:29:04;;;;;;;3.33;2.23;;;;;;;8.25;78.23;95227.31;4953090;29;20197;-78
2023/03/01 10:31:51;;;;;;;4.53;1.73;;;;;;;8.11;79.45;95230.81;4950530;28;20202;-78
2023/03/01 10:34:27;;;;;;;2.23;2.07;;;;;;;8.09;78.79;95238.84;4942224;29;20233;-78
2023/03/01 10:36:56;;;;;;;3.40;2.13;;;;;;;8.12;79.66;95219.31;4941077;29;20181;-79
2023/03/01 10:39:25;;;;;;;4.17;2.40;;;;;;;8.38;78.80;95213.56;4949585;29;20185;-77
2023/03/01 10:42:13;;;;;;;2.37;2.10;;;;;;;8.62;77.35;95221.84;4945969;28;20170;-78
2023/03/01 10:44:47;;;;;;;2.50;1.80;;;;;;;8.65;77.20;95228.50;4938712;28;20206;-78
2023/03/01 10:47:27;;;;;;;3.17;1.90;;;;;;;8.63;77.11;95220.84;4945602;28;20243;-79
2023/03/01 10:49:57;;;;;;;1.90;1.70;;;;;;;8.80;76.32;95216.13;4939016;28;20624;-78
2023/03/01 10:52:32;;;;;;;2.97;1.93;;;;;;;8.74;76.60;95213.41;4942886;29;20183;-79
2023/03/01 10:55:01;;;;;;;3.67;2.00;;;;;;;8.54;76.95;95180.00;4953729;29;20170;-79
2023/03/01 10:57:32;;;;;;;2.63;1.93;;;;;;;8.64;76.66;95222.47;4945758;28;20652;-79
2023/03/01 11:00:23;;;;;;;1.83;1.63;;;;;;;8.47;76.55;95228.97;4945629;28;20174;-79
2023/03/01 11:02:58;;;;;;;5.13;2.10;;;;;;;8.32;77.26;95222.97;4944319;29;20201;-79
2023/03/01 11:05:25;;;;;;;4.60;2.13;;;;;;;8.33;78.45;95214.09;4949133;29;20170;-78
2023/03/01 11:07:56;;;;;;;1.87;1.50;;;;;;;8.39;76.94;95218.59;4942636;29;20206;-78
2023/03/01 11:10:27;;;;;;;2.50;1.40;;;;;;;8.17;76.81;95204.66;4945696;28;20190;-79
2023/03/01 11:13:05;;;;;;;3.47;1.70;;;;;;;8.43;76.74;95217.22;4942250;28;20652;-77
2023/03/01 11:15:30;;;;;;;3.43;1.83;;;;;;;8.52;76.78;95216.09;4933183;29;20627;-77
2023/03/01 11:17:57;;;;;;;6.33;2.73;;;;;;;8.69;76.22;95212.19;4944481;29;20182;-77
2023/03/01 11:20:37;;;;;;;2.43;1.87;;;;;;;8.66;76.38;95209.94;4941488;29;20175;-78
2023/03/01 11:23:08;;;;;;;3.50;1.90;;;;;;;8.75;76.47;95218.47;4941897;29;20551;-78
2023/03/01 11:25:41;;;;;;;4.13;1.77;;;;;;;8.81;76.26;95203.81;4938079;29;20175;-78
2023/03/01 11:28:14;;;;;;;3.07;1.53;;;;;;;8.80;76.07;95204.81;4945081;28;20600;-78
2023/03/01 11:31:05;;;;;;;3.77;1.70;;;;;;;8.79;76.26;95213.69;4944881;28;20218;-78
2023/03/01 11:33:36;;;;;;;1.50;1.40;;;;;;;8.66;76.70;95204.69;4941879;28;20222;-78
2023/03/01 11:36:32;;;;;;;2.23;1.63;;;;;;;8.63;76.50;95205.09;4944301;28;20183;-78
2023/03/01 11:39:10;;;;;;;3.10;2.20;;;;;;;8.77;75.96;95194.69;4939257;29;20258;-78
2023/03/01 11:41:40;;;;;;;2.23;1.87;;;;;;;8.80;75.58;95183.81;4931921;29;20172;-78
2023/03/01 11:44:17;;;;;;;1.40;1.30;;;;;;;8.69;75.23;95188.56;4943681;29;20171;-78
2023/03/01 11:46:51;;;;;;;2.87;1.63;;;;;;;8.69;76.34;95183.31;4948410;29;20210;-78
2023/03/01 11:49:35;;;;;;;3.73;1.33;;;;;;;8.63;76.63;95181.47;4948932;28;20667;-78
2023/03/01 11:52:06;;;;;;;2.20;2.00;;;;;;;8.67;76.84;95174.00;4938981;29;20212;-78